Time;durP1;ratioP1;P1;durP2;ratioP2;P2;SDS_P1;SDS_P2;PMS_P1;PMS_P2;Temp;Humidity;BMP_temperature;BMP_pressure;BME280_temperature;BME280_humidity;BME280_pressure;Samples;Min_cycle;Max_cycle;Signal;HPM_P1;HPM_P2
2021/03/02 00:00:49;;;;;;;23.73;8.43;;;;;;;;;;4982731;28;20042;-54
2021/03/02 00:03:15;;;;;;;26.60;7.75;;;;;;;;;;4991351;28;20049;-56
2021/03/02 00:05:41;;;;;;;28.33;8.32;;;;;;;;;;5000429;28;20042;-57
2021/03/02 00:08:07;;;;;;;24.80;7.78;;;;;;;;;;5003976;28;20046;-55
2021/03/02 00:10:33;;;;;;;24.15;8.30;;;;;;;;;;5004981;28;20054;-53
2021/03/02 00:12:59;;;;;;;23.65;8.98;;;;;;;;;;5003934;28;20061;-56
2021/03/02 00:15:25;;;;;;;22.50;8.40;;;;;;;;;;5000769;28;20132;-57
2021/03/02 00:17:52;;;;;;;27.83;8.95;;;;;;;;;;5004261;28;20038;-54
2021/03/02 00:20:20;;;;;;;24.08;8.57;;;;;;;;;;5008206;28;20056;-54
2021/03/02 00:22:52;;;;;;;24.83;8.45;;;;;;;;;;5023235;28;20061;-55
2021/03/02 00:25:18;;;;;;;23.65;8.27;;;;;;;;;;5011700;28;20056;-56
2021/03/02 00:27:44;;;;;;;24.10;8.00;;;;;;;;;;5004677;28;20038;-57
2021/03/02 00:30:12;;;;;;;24.10;8.35;;;;;;;;;;4995754;28;20042;-55
2021/03/02 00:32:40;;;;;;;21.98;8.05;;;;;;;;;;4981977;28;20043;-56
2021/03/02 00:35:07;;;;;;;27.23;8.73;;;;;;;;;;4984602;28;21279;-57
2021/03/02 00:37:33;;;;;;;26.75;8.75;;;;;;;;;;5002912;28;20034;-54
2021/03/02 00:40:00;;;;;;;28.27;8.82;;;;;;;;;;5000747;28;20062;-54
2021/03/02 00:42:26;;;;;;;24.17;9.18;;;;;;;;;;5011808;28;20049;-57
2021/03/02 00:44:52;;;;;;;24.83;8.55;;;;;;;;;;5001788;28;20041;-54
2021/03/02 00:47:18;;;;;;;21.95;8.07;;;;;;;;;;5014322;28;20038;-53
2021/03/02 00:49:44;;;;;;;26.20;8.25;;;;;;;;;;5022552;28;20057;-56
2021/03/02 00:52:11;;;;;;;28.20;9.02;;;;;;;;;;5006721;28;20053;-55
2021/03/02 00:54:37;;;;;;;23.75;8.80;;;;;;;;;;5006080;28;20038;-51
2021/03/02 00:57:03;;;;;;;24.60;7.70;;;;;;;;;;5010747;28;20077;-55
2021/03/02 00:59:29;;;;;;;24.85;9.90;;;;;;;;;;5023746;28;20050;-55
2021/03/02 01:01:55;;;;;;;27.42;9.40;;;;;;;;;;5018151;28;20123;-51
2021/03/02 01:04:21;;;;;;;28.58;8.57;;;;;;;;;;5022989;28;20123;-53
2021/03/02 01:06:47;;;;;;;25.38;8.30;;;;;;;;;;5011340;28;20042;-55
2021/03/02 01:09:14;;;;;;;25.38;8.27;;;;;;;;;;5002773;28;20055;-53
2021/03/02 01:11:40;;;;;;;20.38;7.35;;;;;;;;;;4999891;28;20042;-52
2021/03/02 01:14:06;;;;;;;26.55;8.18;;;;;;;;;;5001360;28;20038;-53
2021/03/02 01:16:32;;;;;;;34.15;8.85;;;;;;;;;;4998377;28;20057;-53
2021/03/02 01:18:58;;;;;;;23.95;8.98;;;;;;;;;;5022294;28;20141;-57
2021/03/02 01:21:24;;;;;;;24.35;8.70;;;;;;;;;;5022629;28;20030;-53
2021/03/02 01:23:50;;;;;;;22.88;7.82;;;;;;;;;;5001389;28;20044;-55
2021/03/02 01:26:17;;;;;;;21.02;7.70;;;;;;;;;;5002776;28;20042;-55
2021/03/02 01:28:43;;;;;;;24.05;8.20;;;;;;;;;;4998651;28;20030;-56
2021/03/02 01:31:09;;;;;;;25.27;7.75;;;;;;;;;;5001901;28;20066;-53
2021/03/02 01:33:35;;;;;;;20.40;7.00;;;;;;;;;;4998431;28;20061;-54
2021/03/02 01:36:01;;;;;;;23.38;8.50;;;;;;;;;;5003075;28;20085;-56
2021/03/02 01:38:27;;;;;;;18.38;7.38;;;;;;;;;;4996750;28;20046;-56
2021/03/02 01:40:53;;;;;;;25.08;8.73;;;;;;;;;;4994834;28;20193;-54
2021/03/02 01:43:20;;;;;;;20.80;7.60;;;;;;;;;;5009518;28;20054;-57
2021/03/02 01:45:46;;;;;;;28.10;9.18;;;;;;;;;;5018292;28;20041;-57
2021/03/02 01:48:12;;;;;;;24.33;9.05;;;;;;;;;;4998966;28;20053;-57
2021/03/02 01:50:38;;;;;;;25.25;9.27;;;;;;;;;;5002916;28;20111;-54
2021/03/02 01:53:04;;;;;;;25.83;7.90;;;;;;;;;;4998272;28;20050;-57
2021/03/02 01:55:30;;;;;;;23.80;8.63;;;;;;;;;;5004102;28;20128;-56
2021/03/02 01:57:56;;;;;;;25.92;7.97;;;;;;;;;;5001480;28;20062;-51
2021/03/02 02:00:26;;;;;;;25.42;8.35;;;;;;;;;;4997663;28;20077;-56
2021/03/02 02:02:56;;;;;;;23.60;8.23;;;;;;;;;;5002324;28;20038;-54
2021/03/02 02:05:23;;;;;;;23.13;7.85;;;;;;;;;;4999057;28;20030;-56
2021/03/02 02:07:53;;;;;;;29.20;9.35;;;;;;;;;;5002415;28;20102;-54
2021/03/02 02:10:23;;;;;;;24.85;8.80;;;;;;;;;;4998853;28;20491;-57
2021/03/02 02:12:50;;;;;;;24.17;8.93;;;;;;;;;;5002578;28;20053;-54
2021/03/02 02:15:19;;;;;;;22.10;8.23;;;;;;;;;;4992267;28;20511;-55
2021/03/02 02:17:45;;;;;;;;;;;;;;;;;;5004368;28;20053;-52
2021/03/02 02:20:16;;;;;;;24.05;7.07;;;;;;;;;;5007787;28;19940;-55
2021/03/02 02:22:57;;;;;;;20.85;7.07;;;;;;;;;;5020564;28;20065;-53
2021/03/02 02:25:28;;;;;;;20.98;7.60;;;;;;;;;;5017914;28;20081;-55
2021/03/02 02:27:57;;;;;;;21.33;6.78;;;;;;;;;;5020823;28;20056;-53
2021/03/02 02:30:25;;;;;;;21.73;8.13;;;;;;;;;;5019014;28;20057;-55
2021/03/02 02:32:51;;;;;;;23.73;7.68;;;;;;;;;;5020984;28;20041;-51
2021/03/02 02:35:18;;;;;;;26.27;7.63;;;;;;;;;;5011953;28;20049;-50
2021/03/02 02:37:45;;;;;;;26.60;7.20;;;;;;;;;;5002729;28;20042;-55
2021/03/02 02:40:13;;;;;;;21.90;7.97;;;;;;;;;;4999975;28;20033;-57
2021/03/02 02:42:39;;;;;;;28.38;8.20;;;;;;;;;;5005290;28;20058;-52
2021/03/02 02:45:07;;;;;;;28.60;8.27;;;;;;;;;;4998648;28;20157;-52
2021/03/02 02:47:33;;;;;;;24.35;8.13;;;;;;;;;;5004163;28;20053;-52
2021/03/02 02:50:00;;;;;;;23.35;7.80;;;;;;;;;;5004349;28;20042;-56
2021/03/02 02:52:27;;;;;;;21.58;6.78;;;;;;;;;;5000914;28;20135;-57
2021/03/02 02:54:55;;;;;;;20.83;7.65;;;;;;;;;;5002799;28;20034;-55
2021/03/02 02:57:21;;;;;;;29.50;8.43;;;;;;;;;;5014106;28;20107;-54
2021/03/02 02:59:48;;;;;;;21.42;7.15;;;;;;;;;;5022575;28;20066;-55
2021/03/02 03:02:18;;;;;;;25.88;8.57;;;;;;;;;;4997594;28;20360;-55
2021/03/02 03:04:46;;;;;;;29.25;9.43;;;;;;;;;;4999786;28;20038;-55
2021/03/02 03:07:15;;;;;;;20.73;6.90;;;;;;;;;;4997341;28;20034;-53
2021/03/02 03:09:43;;;;;;;23.65;8.32;;;;;;;;;;4999976;28;20472;-56
2021/03/02 03:12:09;;;;;;;21.02;7.75;;;;;;;;;;4998095;28;20038;-56
2021/03/02 03:14:39;;;;;;;23.05;8.10;;;;;;;;;;5001169;28;20042;-55
2021/03/02 03:17:06;;;;;;;23.45;7.95;;;;;;;;;;4996955;28;20046;-57
2021/03/02 03:19:34;;;;;;;25.35;8.88;;;;;;;;;;5000597;28;20062;-56
2021/03/02 03:22:01;;;;;;;28.15;9.05;;;;;;;;;;5001874;28;20041;-56
2021/03/02 03:24:28;;;;;;;24.50;8.23;;;;;;;;;;5022314;28;20053;-56
2021/03/02 03:26:54;;;;;;;28.67;8.63;;;;;;;;;;5013616;28;20393;-55
2021/03/02 03:29:21;;;;;;;26.67;8.27;;;;;;;;;;5002828;28;20042;-53
2021/03/02 03:31:47;;;;;;;25.25;7.72;;;;;;;;;;4998723;28;20038;-56
2021/03/02 03:34:14;;;;;;;28.20;8.70;;;;;;;;;;5001715;28;20042;-54
2021/03/02 03:36:41;;;;;;;24.65;8.00;;;;;;;;;;5001346;28;20038;-55
2021/03/02 03:39:07;;;;;;;26.55;8.77;;;;;;;;;;4994499;28;20050;-51
2021/03/02 03:41:33;;;;;;;24.95;8.07;;;;;;;;;;5003576;28;20049;-55
2021/03/02 03:43:59;;;;;;;25.15;8.65;;;;;;;;;;5001250;28;20046;-54
2021/03/02 03:46:25;;;;;;;21.05;8.20;;;;;;;;;;4999665;28;20042;-55
2021/03/02 03:48:51;;;;;;;22.33;7.35;;;;;;;;;;4996598;28;20084;-53
2021/03/02 03:51:18;;;;;;;24.20;7.75;;;;;;;;;;5000201;28;20097;-55
2021/03/02 03:53:45;;;;;;;24.75;8.35;;;;;;;;;;4996964;28;20070;-55
2021/03/02 03:56:12;;;;;;;24.55;8.45;;;;;;;;;;5001188;28;20065;-53
2021/03/02 03:58:38;;;;;;;21.90;7.50;;;;;;;;;;4996459;28;20026;-51
2021/03/02 04:01:06;;;;;;;24.27;8.30;;;;;;;;;;4999505;28;20046;-51
2021/03/02 04:03:32;;;;;;;25.80;8.02;;;;;;;;;;5010588;28;20052;-51
2021/03/02 04:05:58;;;;;;;27.02;8.45;;;;;;;;;;5024422;28;20046;-56
2021/03/02 04:08:25;;;;;;;24.05;8.85;;;;;;;;;;5005569;28;20041;-56
2021/03/02 04:10:52;;;;;;;26.30;7.80;;;;;;;;;;5026721;28;20052;-56
2021/03/02 04:13:18;;;;;;;26.65;8.30;;;;;;;;;;5025135;28;20119;-55
2021/03/02 04:15:46;;;;;;;23.60;8.73;;;;;;;;;;5043676;28;20049;-54
2021/03/02 04:18:12;;;;;;;30.52;9.32;;;;;;;;;;5026722;28;20048;-54
2021/03/02 04:20:39;;;;;;;26.60;7.97;;;;;;;;;;5023346;28;20054;-52
2021/03/02 04:23:06;;;;;;;26.52;8.82;;;;;;;;;;5006265;28;20501;-52
2021/03/02 04:25:32;;;;;;;23.45;8.55;;;;;;;;;;5035470;28;20478;-52
2021/03/02 04:27:59;;;;;;;23.33;8.60;;;;;;;;;;5043508;28;20115;-53
2021/03/02 04:30:25;;;;;;;23.40;7.93;;;;;;;;;;5028114;28;20073;-51
2021/03/02 04:32:51;;;;;;;23.15;8.68;;;;;;;;;;5007206;28;20155;-52
2021/03/02 04:35:17;;;;;;;25.70;8.88;;;;;;;;;;5011978;28;20053;-52
2021/03/02 04:37:43;;;;;;;26.67;8.52;;;;;;;;;;5027483;28;20034;-54
2021/03/02 04:40:10;;;;;;;24.48;8.70;;;;;;;;;;5015636;28;20049;-53
2021/03/02 04:42:36;;;;;;;24.70;8.48;;;;;;;;;;5001373;28;20053;-57
2021/03/02 04:45:04;;;;;;;21.40;7.63;;;;;;;;;;4992218;28;20037;-54
2021/03/02 04:47:30;;;;;;;25.98;8.82;;;;;;;;;;5042702;28;20033;-56
2021/03/02 04:49:55;;;;;;;25.38;8.35;;;;;;;;;;5037749;28;20089;-57
2021/03/02 04:52:21;;;;;;;26.42;7.60;;;;;;;;;;5006432;28;20042;-55
2021/03/02 04:54:47;;;;;;;24.95;8.05;;;;;;;;;;5021586;28;20056;-53
2021/03/02 04:57:13;;;;;;;22.15;7.95;;;;;;;;;;5021017;28;20060;-57
2021/03/02 04:59:39;;;;;;;22.35;8.25;;;;;;;;;;5006107;28;20049;-56
2021/03/02 05:02:06;;;;;;;24.35;8.10;;;;;;;;;;4986987;28;20045;-56
2021/03/02 05:04:32;;;;;;;23.73;8.15;;;;;;;;;;4986594;28;20026;-57
2021/03/02 05:06:58;;;;;;;28.33;8.07;;;;;;;;;;4997151;28;20169;-52
2021/03/02 05:09:25;;;;;;;23.63;7.75;;;;;;;;;;5007342;28;20081;-55
2021/03/02 05:11:52;;;;;;;22.27;7.65;;;;;;;;;;5019174;28;20056;-56
2021/03/02 05:14:18;;;;;;;23.65;8.18;;;;;;;;;;5006844;28;20042;-54
2021/03/02 05:16:44;;;;;;;24.67;7.53;;;;;;;;;;5003580;28;20052;-55
2021/03/02 05:19:11;;;;;;;25.23;8.23;;;;;;;;;;5005913;28;20066;-56
2021/03/02 05:21:38;;;;;;;23.05;8.93;;;;;;;;;;5026683;28;20048;-52
2021/03/02 05:24:04;;;;;;;27.20;9.10;;;;;;;;;;5042662;28;20323;-55
2021/03/02 05:26:30;;;;;;;27.08;8.13;;;;;;;;;;5019859;28;20134;-54
2021/03/02 05:28:57;;;;;;;25.88;8.52;;;;;;;;;;5023469;28;20038;-52
2021/03/02 05:31:26;;;;;;;20.73;7.47;;;;;;;;;;5003733;28;20060;-57
2021/03/02 05:33:52;;;;;;;24.83;7.07;;;;;;;;;;5005251;28;20104;-54
2021/03/02 05:36:19;;;;;;;21.23;7.45;;;;;;;;;;5004427;28;20030;-54
2021/03/02 05:38:45;;;;;;;24.42;7.63;;;;;;;;;;5039478;28;20037;-57
2021/03/02 05:41:13;;;;;;;23.23;7.85;;;;;;;;;;5028116;28;20045;-53
2021/03/02 05:43:40;;;;;;;26.23;9.25;;;;;;;;;;5009191;28;20041;-57
2021/03/02 05:46:06;;;;;;;25.95;8.02;;;;;;;;;;5006563;28;20606;-56
2021/03/02 05:48:32;;;;;;;22.23;7.60;;;;;;;;;;5020350;28;20077;-54
2021/03/02 05:50:58;;;;;;;21.75;7.28;;;;;;;;;;5006357;28;20042;-56
2021/03/02 05:53:25;;;;;;;24.10;8.05;;;;;;;;;;5002153;28;20029;-57
2021/03/02 05:55:51;;;;;;;23.02;8.02;;;;;;;;;;5005136;28;20042;-54
2021/03/02 05:58:20;;;;;;;22.05;6.63;;;;;;;;;;5018756;28;20078;-55
2021/03/02 06:00:46;;;;;;;26.58;8.45;;;;;;;;;;5021955;28;20037;-52
2021/03/02 06:03:12;;;;;;;22.08;7.93;;;;;;;;;;5003174;28;20049;-56
2021/03/02 06:05:38;;;;;;;23.00;8.65;;;;;;;;;;5022502;28;20117;-56
2021/03/02 06:08:07;;;;;;;20.05;7.72;;;;;;;;;;5018601;28;20049;-56
2021/03/02 06:10:36;;;;;;;21.65;7.35;;;;;;;;;;5021742;28;20111;-57
2021/03/02 06:13:02;;;;;;;21.73;5.95;;;;;;;;;;5017870;28;20045;-54
2021/03/02 06:15:29;;;;;;;27.80;7.03;;;;;;;;;;5003072;28;20042;-57
2021/03/02 06:18:08;;;;;;;22.92;7.38;;;;;;;;;;5001027;28;20034;-57
2021/03/02 06:20:34;;;;;;;24.55;7.80;;;;;;;;;;5002378;28;20052;-53
2021/03/02 06:23:00;;;;;;;24.58;7.47;;;;;;;;;;5002243;28;20042;-53
2021/03/02 06:25:26;;;;;;;20.17;7.47;;;;;;;;;;4997666;28;20060;-56
2021/03/02 06:27:54;;;;;;;20.30;7.15;;;;;;;;;;5002191;28;20085;-54
2021/03/02 06:30:21;;;;;;;20.38;7.05;;;;;;;;;;5012042;28;20041;-56
2021/03/02 06:32:48;;;;;;;19.60;6.70;;;;;;;;;;5022752;28;20093;-56
2021/03/02 06:35:32;;;;;;;23.35;7.70;;;;;;;;;;5007416;28;20046;-55
2021/03/02 06:37:58;;;;;;;18.13;7.50;;;;;;;;;;4999687;28;20053;-54
2021/03/02 06:40:40;;;;;;;20.83;7.18;;;;;;;;;;4997428;28;20050;-57
2021/03/02 06:43:08;;;;;;;24.35;8.07;;;;;;;;;;5009197;28;20049;-57
2021/03/02 06:45:34;;;;;;;17.73;6.72;;;;;;;;;;4995532;28;20065;-55
2021/03/02 06:48:04;;;;;;;26.20;7.68;;;;;;;;;;5001395;28;20494;-56
2021/03/02 06:50:30;;;;;;;22.55;6.88;;;;;;;;;;4998773;28;20064;-56
2021/03/02 06:52:56;;;;;;;20.88;6.97;;;;;;;;;;5001519;28;20042;-55
2021/03/02 06:55:23;;;;;;;20.70;6.85;;;;;;;;;;4999337;28;20046;-55
2021/03/02 06:57:50;;;;;;;21.02;6.47;;;;;;;;;;5002747;28;20042;-56
2021/03/02 07:00:31;;;;;;;19.63;7.07;;;;;;;;;;4995269;28;20483;-56
2021/03/02 07:02:57;;;;;;;21.77;6.97;;;;;;;;;;4992554;28;20042;-56
2021/03/02 07:05:23;;;;;;;23.55;6.82;;;;;;;;;;4991351;28;20038;-56
2021/03/02 07:07:54;;;;;;;21.80;7.05;;;;;;;;;;4991727;28;20062;-54
2021/03/02 07:10:21;;;;;;;21.20;7.07;;;;;;;;;;4988685;28;20057;-54
2021/03/02 07:12:47;;;;;;;20.98;7.40;;;;;;;;;;4992284;28;20118;-52
2021/03/02 07:15:17;;;;;;;18.15;7.18;;;;;;;;;;4992341;28;20050;-54
2021/03/02 07:17:44;;;;;;;16.58;6.50;;;;;;;;;;4991020;28;20413;-53
2021/03/02 07:20:11;;;;;;;18.40;6.50;;;;;;;;;;4992674;28;20051;-55
2021/03/02 07:22:38;;;;;;;21.65;7.50;;;;;;;;;;4993135;28;20049;-53
2021/03/02 07:25:07;;;;;;;20.92;6.60;;;;;;;;;;4991600;28;20038;-54
2021/03/02 07:27:35;;;;;;;24.48;6.90;;;;;;;;;;4986759;28;20117;-53
2021/03/02 07:30:01;;;;;;;21.58;7.20;;;;;;;;;;4991315;28;20050;-55
2021/03/02 07:32:28;;;;;;;20.90;7.75;;;;;;;;;;4990517;28;20117;-54
2021/03/02 07:34:56;;;;;;;20.90;7.18;;;;;;;;;;4992085;28;20435;-55
2021/03/02 07:37:22;;;;;;;21.38;7.38;;;;;;;;;;4989419;28;20116;-55
2021/03/02 07:39:59;;;;;;;16.98;6.57;;;;;;;;;;5002889;28;20054;-54
2021/03/02 07:42:25;;;;;;;27.23;7.53;;;;;;;;;;5006555;28;20062;-54
2021/03/02 07:45:05;;;;;;;20.13;6.60;;;;;;;;;;4983367;28;20050;-55
2021/03/02 07:47:42;;;;;;;18.90;6.50;;;;;;;;;;4999022;28;20496;-54
2021/03/02 07:50:15;;;;;;;25.10;7.20;;;;;;;;;;5001552;28;20042;-57
2021/03/02 07:52:42;;;;;;;19.48;6.47;;;;;;;;;;5001011;28;20444;-57
2021/03/02 07:55:16;;;;;;;22.35;5.75;;;;;;;;;;5003316;28;20377;-56
2021/03/02 07:57:42;;;;;;;21.83;7.38;;;;;;;;;;5006535;28;20085;-56
2021/03/02 08:00:25;;;;;;;18.63;5.82;;;;;;;;;;5020528;28;20424;-55
2021/03/02 08:03:09;;;;;;;20.48;7.22;;;;;;;;;;5017133;28;20570;-55
2021/03/02 08:05:36;;;;;;;21.17;6.18;;;;;;;;;;5022146;28;20046;-55
2021/03/02 08:08:20;;;;;;;22.13;7.25;;;;;;;;;;5014904;28;20042;-54
2021/03/02 08:10:47;;;;;;;22.13;5.88;;;;;;;;;;5005819;28;20057;-57
2021/03/02 08:13:27;;;;;;;19.67;7.00;;;;;;;;;;5000540;28;20161;-57
2021/03/02 08:15:53;;;;;;;19.00;5.90;;;;;;;;;;5003311;28;20075;-54
2021/03/02 08:18:26;;;;;;;17.38;6.43;;;;;;;;;;5001450;28;20410;-53
2021/03/02 08:21:12;;;;;;;17.40;6.57;;;;;;;;;;5003872;28;20038;-55
2021/03/02 08:23:48;;;;;;;20.85;6.00;;;;;;;;;;4995350;28;20346;-56
2021/03/02 08:26:21;;;;;;;15.93;6.18;;;;;;;;;;4985506;28;20030;-57
2021/03/02 08:29:02;;;;;;;16.17;5.72;;;;;;;;;;4987429;28;20042;-54
2021/03/02 08:31:28;;;;;;;22.42;6.75;;;;;;;;;;5005147;28;20499;-57
2021/03/02 08:33:55;;;;;;;21.80;6.35;;;;;;;;;;4999420;28;20042;-57
2021/03/02 08:36:22;;;;;;;14.98;5.35;;;;;;;;;;5003169;28;20073;-57
2021/03/02 08:38:48;;;;;;;14.70;5.53;;;;;;;;;;4990570;28;20116;-53
2021/03/02 08:41:26;;;;;;;17.48;6.28;;;;;;;;;;5001973;28;20057;-56
2021/03/02 08:43:52;;;;;;;19.77;6.30;;;;;;;;;;5006736;28;20042;-57
2021/03/02 08:46:23;;;;;;;17.02;5.90;;;;;;;;;;4983884;28;20034;-57
2021/03/02 08:48:49;;;;;;;15.02;4.95;;;;;;;;;;4984039;28;20489;-55
2021/03/02 08:51:19;;;;;;;17.70;6.07;;;;;;;;;;4997326;28;20054;-57
2021/03/02 08:53:48;;;;;;;18.63;6.32;;;;;;;;;;5003585;28;20042;-55
2021/03/02 08:56:19;;;;;;;18.23;5.90;;;;;;;;;;4999255;28;20070;-57
2021/03/02 08:58:46;;;;;;;15.82;5.68;;;;;;;;;;5002746;28;20053;-53
2021/03/02 09:01:12;;;;;;;21.05;7.47;;;;;;;;;;4999708;28;20038;-52
2021/03/02 09:03:39;;;;;;;18.45;6.28;;;;;;;;;;5003103;28;20065;-57
2021/03/02 09:06:20;;;;;;;14.65;4.72;;;;;;;;;;5000353;28;20050;-57
2021/03/02 09:08:51;;;;;;;18.08;6.22;;;;;;;;;;5000724;28;20057;-53
2021/03/02 09:11:19;;;;;;;14.63;4.88;;;;;;;;;;5000457;28;20409;-55
2021/03/02 09:13:45;;;;;;;14.95;4.88;;;;;;;;;;5002754;28;20038;-56
2021/03/02 09:16:27;;;;;;;19.63;5.88;;;;;;;;;;4999651;28;20056;-51
2021/03/02 09:19:01;;;;;;;17.55;5.40;;;;;;;;;;5002372;28;20066;-55
2021/03/02 09:21:27;;;;;;;11.80;5.05;;;;;;;;;;5009707;28;20053;-56
2021/03/02 09:23:54;;;;;;;15.70;5.93;;;;;;;;;;5021296;28;20396;-54
2021/03/02 09:26:20;;;;;;;14.93;5.53;;;;;;;;;;5018027;28;20038;-57
2021/03/02 09:28:50;;;;;;;13.35;5.00;;;;;;;;;;5022153;28;20057;-54
2021/03/02 09:31:17;;;;;;;15.82;6.35;;;;;;;;;;5012695;28;20050;-52
2021/03/02 09:33:43;;;;;;;19.20;6.85;;;;;;;;;;5002844;28;20045;-51
2021/03/02 09:36:09;;;;;;;10.55;3.65;;;;;;;;;;4998207;28;20068;-57
2021/03/02 09:38:35;;;;;;;20.67;6.45;;;;;;;;;;5003358;28;20060;-54
2021/03/02 09:41:02;;;;;;;20.80;6.47;;;;;;;;;;5001245;28;20034;-54
2021/03/02 09:43:33;;;;;;;17.55;6.20;;;;;;;;;;5027340;28;20112;-56
2021/03/02 09:45:59;;;;;;;15.75;5.95;;;;;;;;;;5003132;28;20036;-56
2021/03/02 09:48:25;;;;;;;19.30;5.53;;;;;;;;;;5015354;28;20053;-56
2021/03/02 09:50:52;;;;;;;20.38;6.65;;;;;;;;;;5022870;28;20034;-55
2021/03/02 09:53:18;;;;;;;16.42;5.95;;;;;;;;;;5004438;28;20073;-51
2021/03/02 09:55:45;;;;;;;16.10;5.35;;;;;;;;;;5004259;28;20046;-55
2021/03/02 09:58:15;;;;;;;19.05;6.05;;;;;;;;;;5011485;28;20060;-56
2021/03/02 10:00:48;;;;;;;14.38;5.28;;;;;;;;;;5019803;28;20038;-55
2021/03/02 10:03:15;;;;;;;15.52;4.82;;;;;;;;;;5007426;28;20042;-55
2021/03/02 10:05:42;;;;;;;7.50;2.92;;;;;;;;;;5002983;28;20123;-58
2021/03/02 10:08:38;;;;;;;26.75;7.70;;;;;;;;;;5007674;28;20041;-58
2021/03/02 10:11:18;;;;;;;22.08;6.43;;;;;;;;;;5020106;28;20056;-54
2021/03/02 10:13:48;;;;;;;19.38;5.68;;;;;;;;;;5017318;28;20123;-53
2021/03/02 10:16:19;;;;;;;20.92;6.47;;;;;;;;;;5022897;28;20049;-56
2021/03/02 10:18:46;;;;;;;16.52;5.88;;;;;;;;;;5018349;28;20061;-54
2021/03/02 10:21:12;;;;;;;17.38;5.25;;;;;;;;;;5007601;28;20049;-57
2021/03/02 10:23:41;;;;;;;11.55;4.28;;;;;;;;;;4998356;28;20041;-54
2021/03/02 10:26:07;;;;;;;20.33;6.82;;;;;;;;;;5001350;28;20038;-52
2021/03/02 10:28:33;;;;;;;18.25;6.13;;;;;;;;;;5003244;28;20056;-50
2021/03/02 10:31:00;;;;;;;20.40;7.93;;;;;;;;;;5022684;28;20046;-56
2021/03/02 10:33:26;;;;;;;19.70;5.88;;;;;;;;;;5013966;28;20057;-56
2021/03/02 10:35:52;;;;;;;19.27;7.55;;;;;;;;;;5001305;28;20054;-53
2021/03/02 10:38:18;;;;;;;15.10;5.88;;;;;;;;;;4997907;28;20380;-57
2021/03/02 10:40:44;;;;;;;20.23;7.03;;;;;;;;;;5001057;28;20173;-53
2021/03/02 10:43:10;;;;;;;16.67;6.80;;;;;;;;;;5003015;28;20042;-54
2021/03/02 10:45:36;;;;;;;21.42;6.60;;;;;;;;;;4997507;28;20106;-55
2021/03/02 10:48:03;;;;;;;17.70;6.82;;;;;;;;;;5002602;28;20440;-57
2021/03/02 10:50:29;;;;;;;17.95;6.63;;;;;;;;;;4999954;28;20038;-57
2021/03/02 10:52:56;;;;;;;20.88;6.25;;;;;;;;;;5001029;28;20041;-58
2021/03/02 10:55:22;;;;;;;21.25;6.97;;;;;;;;;;4999676;28;20034;-58
2021/03/02 10:57:48;;;;;;;16.77;5.53;;;;;;;;;;5000009;28;20065;-57
2021/03/02 11:00:15;;;;;;;7.30;2.97;;;;;;;;;;5006938;28;20030;-56
2021/03/02 11:02:41;;;;;;;18.23;5.95;;;;;;;;;;5023473;28;20045;-56
2021/03/02 11:05:09;;;;;;;19.42;7.38;;;;;;;;;;5020132;28;20048;-56
2021/03/02 11:07:35;;;;;;;19.77;7.05;;;;;;;;;;5024596;28;20042;-56
2021/03/02 11:10:03;;;;;;;20.02;7.22;;;;;;;;;;5015469;28;20140;-55
2021/03/02 11:12:29;;;;;;;17.83;6.75;;;;;;;;;;5006189;28;20034;-58
2021/03/02 11:14:55;;;;;;;23.40;7.22;;;;;;;;;;5021902;28;20045;-55
2021/03/02 11:17:21;;;;;;;18.13;7.25;;;;;;;;;;5008566;28;20049;-51
2021/03/02 11:19:48;;;;;;;14.02;5.80;;;;;;;;;;5009861;28;20051;-56
2021/03/02 11:22:18;;;;;;;15.73;6.03;;;;;;;;;;5022647;28;20061;-54
2021/03/02 11:24:44;;;;;;;15.93;6.22;;;;;;;;;;5007529;28;20038;-55
2021/03/02 11:27:10;;;;;;;23.00;6.97;;;;;;;;;;5037429;28;20045;-56
2021/03/02 11:29:36;;;;;;;21.17;6.43;;;;;;;;;;5044004;28;20037;-54
2021/03/02 11:32:03;;;;;;;18.13;5.95;;;;;;;;;;4999350;28;20033;-58
2021/03/02 11:34:29;;;;;;;19.42;6.53;;;;;;;;;;5021945;28;20037;-57
2021/03/02 11:36:55;;;;;;;17.75;6.28;;;;;;;;;;5022161;28;20049;-55
2021/03/02 11:39:22;;;;;;;15.07;6.20;;;;;;;;;;5007249;28;20045;-55
2021/03/02 11:41:48;;;;;;;14.73;5.70;;;;;;;;;;5008600;28;20057;-57
2021/03/02 11:44:14;;;;;;;15.23;6.18;;;;;;;;;;5023582;28;20108;-57
2021/03/02 11:46:40;;;;;;;16.10;6.03;;;;;;;;;;5026421;28;20098;-57
2021/03/02 11:49:06;;;;;;;15.07;5.90;;;;;;;;;;5044032;28;20045;-56
2021/03/02 11:51:32;;;;;;;15.55;5.82;;;;;;;;;;5019910;28;20029;-54
2021/03/02 11:53:58;;;;;;;16.83;6.20;;;;;;;;;;5022351;28;20045;-55
2021/03/02 11:56:25;;;;;;;14.18;5.30;;;;;;;;;;5019883;28;20127;-56
2021/03/02 11:58:51;;;;;;;14.27;5.70;;;;;;;;;;5006417;28;20050;-55
2021/03/02 12:01:20;;;;;;;17.48;5.95;;;;;;;;;;5024401;28;20066;-51
2021/03/02 12:03:46;;;;;;;16.58;6.00;;;;;;;;;;5001191;28;20038;-56
2021/03/02 12:06:12;;;;;;;16.73;6.28;;;;;;;;;;5002462;28;20061;-55
2021/03/02 12:08:38;;;;;;;21.88;6.68;;;;;;;;;;5016061;28;20049;-51
2021/03/02 12:11:04;;;;;;;16.60;5.93;;;;;;;;;;5022401;28;20042;-58
2021/03/02 12:13:31;;;;;;;16.48;6.55;;;;;;;;;;5007074;28;20045;-53
2021/03/02 12:15:57;;;;;;;17.30;5.97;;;;;;;;;;5005568;28;20053;-57
2021/03/02 12:18:23;;;;;;;14.95;6.13;;;;;;;;;;5000186;28;20049;-57
2021/03/02 12:20:49;;;;;;;13.60;5.32;;;;;;;;;;5004585;28;20045;-56
2021/03/02 12:23:15;;;;;;;16.88;6.35;;;;;;;;;;4998912;28;20052;-58
2021/03/02 12:25:41;;;;;;;17.85;6.50;;;;;;;;;;5004253;28;20030;-55
2021/03/02 12:28:07;;;;;;;18.75;6.18;;;;;;;;;;5002089;28;20049;-55
2021/03/02 12:30:34;;;;;;;16.70;6.32;;;;;;;;;;5002499;28;20042;-56
2021/03/02 12:33:00;;;;;;;21.58;6.43;;;;;;;;;;5001189;28;20050;-56
2021/03/02 12:35:26;;;;;;;15.40;6.03;;;;;;;;;;5003597;28;20046;-56
2021/03/02 12:37:52;;;;;;;15.32;6.03;;;;;;;;;;5000706;28;20034;-56
2021/03/02 12:40:19;;;;;;;17.20;6.72;;;;;;;;;;5020254;28;20120;-55
2021/03/02 12:42:45;;;;;;;17.73;6.43;;;;;;;;;;5018578;28;20046;-57
2021/03/02 12:45:11;;;;;;;11.07;3.92;;;;;;;;;;5001344;28;20038;-57
2021/03/02 12:47:38;;;;;;;20.40;6.28;;;;;;;;;;5005062;28;20034;-57
2021/03/02 12:50:08;;;;;;;14.82;6.03;;;;;;;;;;5012742;28;20124;-58
2021/03/02 12:52:35;;;;;;;15.93;6.30;;;;;;;;;;5022560;28;20119;-57
2021/03/02 12:55:01;;;;;;;17.77;6.88;;;;;;;;;;5005675;28;20042;-55
2021/03/02 12:57:28;;;;;;;16.73;7.25;;;;;;;;;;5002275;28;20042;-58
2021/03/02 12:59:54;;;;;;;17.98;5.78;;;;;;;;;;4998338;28;20034;-56
2021/03/02 13:02:21;;;;;;;19.40;6.85;;;;;;;;;;5004025;28;20046;-52
2021/03/02 13:04:48;;;;;;;18.40;6.35;;;;;;;;;;5004188;28;20041;-54
2021/03/02 13:07:16;;;;;;;16.95;6.95;;;;;;;;;;5021625;28;20099;-57
2021/03/02 13:09:43;;;;;;;14.85;5.78;;;;;;;;;;5019014;28;20127;-57
2021/03/02 13:12:09;;;;;;;18.27;6.47;;;;;;;;;;5004785;28;20057;-57
2021/03/02 13:14:36;;;;;;;16.40;6.50;;;;;;;;;;5022243;28;20188;-56
2021/03/02 13:17:02;;;;;;;13.52;6.13;;;;;;;;;;5040876;28;20041;-56
2021/03/02 13:19:28;;;;;;;18.58;7.43;;;;;;;;;;5024623;28;21238;-57
2021/03/02 13:21:55;;;;;;;17.67;6.45;;;;;;;;;;5018686;28;20050;-56
2021/03/02 13:24:21;;;;;;;18.75;7.40;;;;;;;;;;5023917;28;20030;-58
2021/03/02 13:26:49;;;;;;;19.38;6.55;;;;;;;;;;5037851;28;20090;-55
2021/03/02 13:29:15;;;;;;;18.75;6.47;;;;;;;;;;5025026;28;20032;-57
2021/03/02 13:31:44;;;;;;;19.42;7.40;;;;;;;;;;5000194;28;20033;-57
2021/03/02 13:34:11;;;;;;;16.40;6.50;;;;;;;;;;5017365;28;20045;-55
2021/03/02 13:36:38;;;;;;;22.02;7.93;;;;;;;;;;5002450;28;20049;-58
2021/03/02 13:39:05;;;;;;;17.27;7.20;;;;;;;;;;5005497;28;20046;-57
2021/03/02 13:41:32;;;;;;;21.55;6.55;;;;;;;;;;5019913;28;20039;-58
2021/03/02 13:44:00;;;;;;;18.15;6.88;;;;;;;;;;5014233;28;20046;-56
2021/03/02 13:46:26;;;;;;;17.30;6.93;;;;;;;;;;4996876;28;20171;-57
2021/03/02 13:48:52;;;;;;;21.35;6.95;;;;;;;;;;5025923;28;20037;-58
2021/03/02 13:51:21;;;;;;;18.77;6.78;;;;;;;;;;5022060;28;20059;-58
2021/03/02 13:53:47;;;;;;;17.15;7.25;;;;;;;;;;5041576;28;20040;-56
2021/03/02 13:56:14;;;;;;;17.42;7.10;;;;;;;;;;5035449;28;20030;-58
2021/03/02 13:58:41;;;;;;;17.98;7.20;;;;;;;;;;5005542;28;20068;-56
2021/03/02 14:01:08;;;;;;;20.00;7.13;;;;;;;;;;5023342;28;20041;-57
2021/03/02 14:03:36;;;;;;;20.75;7.18;;;;;;;;;;5019913;28;20161;-55
2021/03/02 14:06:03;;;;;;;17.83;6.57;;;;;;;;;;5005683;28;20057;-58
2021/03/02 14:08:29;;;;;;;18.67;7.00;;;;;;;;;;5000184;28;20068;-59
2021/03/02 14:10:55;;;;;;;19.02;7.18;;;;;;;;;;5021849;28;20053;-58
2021/03/02 14:13:25;;;;;;;15.07;6.38;;;;;;;;;;5019212;28;20050;-56
2021/03/02 14:15:51;;;;;;;22.10;7.25;;;;;;;;;;5022770;28;20036;-55
2021/03/02 14:18:18;;;;;;;18.15;7.30;;;;;;;;;;5002966;28;20075;-53
2021/03/02 14:20:46;;;;;;;23.77;7.63;;;;;;;;;;5004670;28;20033;-53
2021/03/02 14:23:12;;;;;;;22.05;8.02;;;;;;;;;;5030204;28;20037;-58
2021/03/02 14:25:38;;;;;;;18.65;6.78;;;;;;;;;;5026766;28;20045;-55
2021/03/02 14:28:05;;;;;;;19.65;7.28;;;;;;;;;;5021805;28;20123;-57
2021/03/02 14:30:31;;;;;;;18.42;7.63;;;;;;;;;;5041504;28;20056;-58
2021/03/02 14:32:58;;;;;;;19.23;8.57;;;;;;;;;;5015814;28;20059;-56